sensor_id;sensor_type;location;lat;lon;timestamp;temperature;humidity
15636;DHT22;7917;50.818;6.972;2023-03-23T00:00:07;13.20;99.90
15636;DHT22;7917;50.818;6.972;2023-03-23T00:02:40;13.20;99.90
15636;DHT22;7917;50.818;6.972;2023-03-23T00:05:10;13.20;99.90
15636;DHT22;7917;50.818;6.972;2023-03-23T00:07:38;13.20;99.90
15636;DHT22;7917;50.818;6.972;2023-03-23T00:10:11;13.10;99.90
15636;DHT22;7917;50.818;6.972;2023-03-23T00:12:38;13.10;99.90
15636;DHT22;7917;50.818;6.972;2023-03-23T00:15:13;13.00;99.90
15636;DHT22;7917;50.818;6.972;2023-03-23T00:17:42;13.00;99.90
15636;DHT22;7917;50.818;6.972;2023-03-23T00:20:10;13.00;1.00
15636;DHT22;7917;50.818;6.972;2023-03-23T00:22:41;13.10;99.90
15636;DHT22;7917;50.818;6.972;2023-03-23T00:25:09;13.00;1.00
15636;DHT22;7917;50.818;6.972;2023-03-23T00:27:36;13.10;1.00
15636;DHT22;7917;50.818;6.972;2023-03-23T00:30:05;13.10;99.90
15636;DHT22;7917;50.818;6.972;2023-03-23T00:32:32;13.10;1.00
15636;DHT22;7917;50.818;6.972;2023-03-23T00:35:05;13.00;1.00
15636;DHT22;7917;50.818;6.972;2023-03-23T00:37:33;13.00;1.00
15636;DHT22;7917;50.818;6.972;2023-03-23T00:40:01;13.00;1.00
15636;DHT22;7917;50.818;6.972;2023-03-23T00:42:36;13.00;1.00
15636;DHT22;7917;50.818;6.972;2023-03-23T00:45:05;13.00;1.00
15636;DHT22;7917;50.818;6.972;2023-03-23T00:47:36;13.00;1.00
15636;DHT22;7917;50.818;6.972;2023-03-23T00:50:10;12.90;1.00
15636;DHT22;7917;50.818;6.972;2023-03-23T00:52:39;12.90;1.00
15636;DHT22;7917;50.818;6.972;2023-03-23T00:55:07;12.90;1.00
15636;DHT22;7917;50.818;6.972;2023-03-23T00:57:34;13.00;1.00
15636;DHT22;7917;50.818;6.972;2023-03-23T01:00:01;13.00;99.90
15636;DHT22;7917;50.818;6.972;2023-03-23T01:02:30;13.00;99.90
15636;DHT22;7917;50.818;6.972;2023-03-23T01:04:58;13.00;99.90
15636;DHT22;7917;50.818;6.972;2023-03-23T01:07:25;12.90;1.00
15636;DHT22;7917;50.818;6.972;2023-03-23T01:09:55;12.90;1.00
15636;DHT22;7917;50.818;6.972;2023-03-23T01:12:23;12.80;1.00
15636;DHT22;7917;50.818;6.972;2023-03-23T01:14:51;12.70;1.00
15636;DHT22;7917;50.818;6.972;2023-03-23T01:17:20;12.70;1.00
15636;DHT22;7917;50.818;6.972;2023-03-23T01:19:48;12.70;1.00
15636;DHT22;7917;50.818;6.972;2023-03-23T01:22:18;12.70;1.00
15636;DHT22;7917;50.818;6.972;2023-03-23T01:24:45;12.70;1.00
15636;DHT22;7917;50.818;6.972;2023-03-23T01:27:19;12.70;1.00
15636;DHT22;7917;50.818;6.972;2023-03-23T01:29:46;12.70;1.00
15636;DHT22;7917;50.818;6.972;2023-03-23T01:32:13;12.80;1.00
15636;DHT22;7917;50.818;6.972;2023-03-23T01:34:40;12.80;1.00
15636;DHT22;7917;50.818;6.972;2023-03-23T01:37:07;12.70;1.00
15636;DHT22;7917;50.818;6.972;2023-03-23T01:40:08;12.70;1.00
15636;DHT22;7917;50.818;6.972;2023-03-23T01:42:38;12.70;1.00
15636;DHT22;7917;50.818;6.972;2023-03-23T01:45:27;12.70;1.00
15636;DHT22;7917;50.818;6.972;2023-03-23T01:48:03;12.80;1.00
15636;DHT22;7917;50.818;6.972;2023-03-23T01:50:36;12.70;1.00
15636;DHT22;7917;50.818;6.972;2023-03-23T01:53:07;12.70;1.00
15636;DHT22;7917;50.818;6.972;2023-03-23T01:55:41;12.60;99.90
15636;DHT22;7917;50.818;6.972;2023-03-23T01:58:09;12.60;33.50
15636;DHT22;7917;50.818;6.972;2023-03-23T02:00:38;12.50;99.90
15636;DHT22;7917;50.818;6.972;2023-03-23T02:03:08;12.40;99.90
15636;DHT22;7917;50.818;6.972;2023-03-23T02:05:39;12.40;99.90
15636;DHT22;7917;50.818;6.972;2023-03-23T02:08:08;12.30;99.90
15636;DHT22;7917;50.818;6.972;2023-03-23T02:10:39;12.30;99.90
15636;DHT22;7917;50.818;6.972;2023-03-23T02:13:09;12.30;99.90
15636;DHT22;7917;50.818;6.972;2023-03-23T02:15:45;12.30;99.90
15636;DHT22;7917;50.818;6.972;2023-03-23T02:18:32;12.20;99.90
15636;DHT22;7917;50.818;6.972;2023-03-23T02:21:23;12.20;99.90
15636;DHT22;7917;50.818;6.972;2023-03-23T02:26:53;12.20;99.90
15636;DHT22;7917;50.818;6.972;2023-03-23T02:32:46;12.20;99.90
15636;DHT22;7917;50.818;6.972;2023-03-23T02:35:27;12.20;99.90
15636;DHT22;7917;50.818;6.972;2023-03-23T02:37:58;12.20;99.90
15636;DHT22;7917;50.818;6.972;2023-03-23T02:40:30;12.20;99.90
15636;DHT22;7917;50.818;6.972;2023-03-23T02:42:59;12.10;1.00
15636;DHT22;7917;50.818;6.972;2023-03-23T02:45:28;12.00;1.00
15636;DHT22;7917;50.818;6.972;2023-03-23T02:48:00;11.90;1.00
15636;DHT22;7917;50.818;6.972;2023-03-23T02:50:30;11.90;1.00
15636;DHT22;7917;50.818;6.972;2023-03-23T02:52:59;11.90;1.00
15636;DHT22;7917;50.818;6.972;2023-03-23T02:55:28;11.90;1.00
15636;DHT22;7917;50.818;6.972;2023-03-23T02:57:56;11.90;1.00
15636;DHT22;7917;50.818;6.972;2023-03-23T03:00:26;11.90;1.00
15636;DHT22;7917;50.818;6.972;2023-03-23T03:02:55;11.90;1.00
15636;DHT22;7917;50.818;6.972;2023-03-23T03:05:30;11.90;1.00
15636;DHT22;7917;50.818;6.972;2023-03-23T03:08:05;11.90;1.00
15636;DHT22;7917;50.818;6.972;2023-03-23T03:10:40;11.90;1.00
15636;DHT22;7917;50.818;6.972;2023-03-23T03:13:14;11.90;1.00
15636;DHT22;7917;50.818;6.972;2023-03-23T03:15:47;11.90;1.00
15636;DHT22;7917;50.818;6.972;2023-03-23T03:18:18;11.80;1.00
15636;DHT22;7917;50.818;6.972;2023-03-23T03:21:00;11.80;1.00
15636;DHT22;7917;50.818;6.972;2023-03-23T03:23:33;11.80;1.00
15636;DHT22;7917;50.818;6.972;2023-03-23T03:26:04;11.80;1.00
15636;DHT22;7917;50.818;6.972;2023-03-23T03:28:39;11.80;1.00
15636;DHT22;7917;50.818;6.972;2023-03-23T03:31:12;11.70;1.00
15636;DHT22;7917;50.818;6.972;2023-03-23T03:33:47;11.70;1.00
15636;DHT22;7917;50.818;6.972;2023-03-23T03:36:20;11.60;1.00
15636;DHT22;7917;50.818;6.972;2023-03-23T03:38:49;11.60;62.30
15636;DHT22;7917;50.818;6.972;2023-03-23T03:41:17;11.60;31.20
15636;DHT22;7917;50.818;6.972;2023-03-23T03:43:45;11.60;1.00
15636;DHT22;7917;50.818;6.972;2023-03-23T03:46:12;11.60;8.80
15636;DHT22;7917;50.818;6.972;2023-03-23T03:48:39;11.60;12.90
15636;DHT22;7917;50.818;6.972;2023-03-23T03:51:06;11.50;99.90
15636;DHT22;7917;50.818;6.972;2023-03-23T03:53:35;11.50;99.90
15636;DHT22;7917;50.818;6.972;2023-03-23T03:56:03;11.50;99.90
15636;DHT22;7917;50.818;6.972;2023-03-23T03:58:31;11.50;99.90
15636;DHT22;7917;50.818;6.972;2023-03-23T04:01:13;11.50;99.90
15636;DHT22;7917;50.818;6.972;2023-03-23T04:03:41;11.50;99.90
15636;DHT22;7917;50.818;6.972;2023-03-23T04:06:08;11.40;99.90
15636;DHT22;7917;50.818;6.972;2023-03-23T04:08:39;11.40;99.90
15636;DHT22;7917;50.818;6.972;2023-03-23T04:11:07;11.40;1.00
15636;DHT22;7917;50.818;6.972;2023-03-23T04:13:33;11.30;1.00
15636;DHT22;7917;50.818;6.972;2023-03-23T04:16:00;11.30;1.00
15636;DHT22;7917;50.818;6.972;2023-03-23T04:18:27;11.40;1.00
15636;DHT22;7917;50.818;6.972;2023-03-23T04:20:55;11.40;1.00
15636;DHT22;7917;50.818;6.972;2023-03-23T04:23:26;11.50;99.90
15636;DHT22;7917;50.818;6.972;2023-03-23T04:25:56;11.40;1.00
15636;DHT22;7917;50.818;6.972;2023-03-23T04:28:24;11.50;99.90
15636;DHT22;7917;50.818;6.972;2023-03-23T04:30:52;11.50;1.00
15636;DHT22;7917;50.818;6.972;2023-03-23T04:33:20;11.50;99.90
15636;DHT22;7917;50.818;6.972;2023-03-23T04:35:54;11.50;1.00
15636;DHT22;7917;50.818;6.972;2023-03-23T04:38:21;11.50;1.00
15636;DHT22;7917;50.818;6.972;2023-03-23T04:40:56;11.50;1.00
15636;DHT22;7917;50.818;6.972;2023-03-23T04:43:26;11.50;1.00
15636;DHT22;7917;50.818;6.972;2023-03-23T04:45:54;11.50;1.00
15636;DHT22;7917;50.818;6.972;2023-03-23T04:48:35;11.40;1.00
15636;DHT22;7917;50.818;6.972;2023-03-23T04:54:31;11.20;1.00
15636;DHT22;7917;50.818;6.972;2023-03-23T04:56:58;11.10;96.10
15636;DHT22;7917;50.818;6.972;2023-03-23T05:02:48;10.90;99.90
15636;DHT22;7917;50.818;6.972;2023-03-23T05:05:18;10.80;1.00
15636;DHT22;7917;50.818;6.972;2023-03-23T05:07:45;10.70;99.90
15636;DHT22;7917;50.818;6.972;2023-03-23T05:10:12;10.60;99.90
15636;DHT22;7917;50.818;6.972;2023-03-23T05:12:40;10.60;4.80
15636;DHT22;7917;50.818;6.972;2023-03-23T05:15:07;10.50;1.00
15636;DHT22;7917;50.818;6.972;2023-03-23T05:17:36;10.50;99.90
15636;DHT22;7917;50.818;6.972;2023-03-23T05:20:07;10.50;1.00
15636;DHT22;7917;50.818;6.972;2023-03-23T05:22:37;10.40;99.90
15636;DHT22;7917;50.818;6.972;2023-03-23T05:25:04;10.40;1.00
15636;DHT22;7917;50.818;6.972;2023-03-23T05:27:32;10.30;99.90
15636;DHT22;7917;50.818;6.972;2023-03-23T05:29:59;10.30;55.70
15636;DHT22;7917;50.818;6.972;2023-03-23T05:32:29;10.30;1.00
15636;DHT22;7917;50.818;6.972;2023-03-23T05:35:02;10.30;99.90
15636;DHT22;7917;50.818;6.972;2023-03-23T05:37:29;10.30;1.00
15636;DHT22;7917;50.818;6.972;2023-03-23T05:39:58;10.30;1.00
15636;DHT22;7917;50.818;6.972;2023-03-23T05:42:30;10.30;99.90
15636;DHT22;7917;50.818;6.972;2023-03-23T05:45:00;10.40;1.00
15636;DHT22;7917;50.818;6.972;2023-03-23T05:47:48;10.50;99.90
15636;DHT22;7917;50.818;6.972;2023-03-23T05:50:30;10.50;1.00
15636;DHT22;7917;50.818;6.972;2023-03-23T05:52:57;10.60;99.90
15636;DHT22;7917;50.818;6.972;2023-03-23T05:55:24;10.60;1.00
15636;DHT22;7917;50.818;6.972;2023-03-23T05:57:51;10.70;1.00
15636;DHT22;7917;50.818;6.972;2023-03-23T06:02:49;11.00;1.00
15636;DHT22;7917;50.818;6.972;2023-03-23T06:05:17;11.10;99.90
15636;DHT22;7917;50.818;6.972;2023-03-23T06:07:50;11.20;1.00
15636;DHT22;7917;50.818;6.972;2023-03-23T06:10:18;11.40;99.90
15636;DHT22;7917;50.818;6.972;2023-03-23T06:12:53;11.40;99.90
15636;DHT22;7917;50.818;6.972;2023-03-23T06:15:25;11.50;4.70
15636;DHT22;7917;50.818;6.972;2023-03-23T06:17:54;11.60;1.00
15636;DHT22;7917;50.818;6.972;2023-03-23T06:20:22;11.60;1.00
15636;DHT22;7917;50.818;6.972;2023-03-23T06:22:50;11.80;1.00
15636;DHT22;7917;50.818;6.972;2023-03-23T06:25:18;11.80;1.00
15636;DHT22;7917;50.818;6.972;2023-03-23T06:27:45;12.00;1.00
15636;DHT22;7917;50.818;6.972;2023-03-23T06:30:22;12.10;1.00
15636;DHT22;7917;50.818;6.972;2023-03-23T06:32:49;12.20;99.90
15636;DHT22;7917;50.818;6.972;2023-03-23T06:35:16;12.30;99.90
15636;DHT22;7917;50.818;6.972;2023-03-23T06:37:46;12.40;99.90
15636;DHT22;7917;50.818;6.972;2023-03-23T06:40:31;12.40;99.90
15636;DHT22;7917;50.818;6.972;2023-03-23T06:42:59;12.40;99.90
15636;DHT22;7917;50.818;6.972;2023-03-23T06:45:26;12.40;99.90
15636;DHT22;7917;50.818;6.972;2023-03-23T06:47:53;12.50;99.90
15636;DHT22;7917;50.818;6.972;2023-03-23T06:50:19;12.50;99.90
15636;DHT22;7917;50.818;6.972;2023-03-23T06:52:49;12.50;99.90
15636;DHT22;7917;50.818;6.972;2023-03-23T06:55:17;12.60;99.90
15636;DHT22;7917;50.818;6.972;2023-03-23T06:57:46;12.70;99.90
15636;DHT22;7917;50.818;6.972;2023-03-23T07:00:14;12.70;99.90
15636;DHT22;7917;50.818;6.972;2023-03-23T07:02:42;12.70;99.90
15636;DHT22;7917;50.818;6.972;2023-03-23T07:05:10;12.70;99.90
15636;DHT22;7917;50.818;6.972;2023-03-23T07:07:37;12.70;99.90
15636;DHT22;7917;50.818;6.972;2023-03-23T07:10:05;12.70;99.90
15636;DHT22;7917;50.818;6.972;2023-03-23T07:12:33;12.70;99.90
15636;DHT22;7917;50.818;6.972;2023-03-23T07:15:01;12.70;99.90
15636;DHT22;7917;50.818;6.972;2023-03-23T07:17:28;12.80;99.90
15636;DHT22;7917;50.818;6.972;2023-03-23T07:19:55;12.90;99.90
15636;DHT22;7917;50.818;6.972;2023-03-23T07:22:22;12.90;99.90
15636;DHT22;7917;50.818;6.972;2023-03-23T07:24:48;12.90;99.90
15636;DHT22;7917;50.818;6.972;2023-03-23T07:27:16;13.10;99.90
15636;DHT22;7917;50.818;6.972;2023-03-23T07:29:42;13.10;99.90
15636;DHT22;7917;50.818;6.972;2023-03-23T07:32:11;13.10;99.90
15636;DHT22;7917;50.818;6.972;2023-03-23T07:34:41;13.20;99.90
15636;DHT22;7917;50.818;6.972;2023-03-23T07:37:09;13.20;99.90
15636;DHT22;7917;50.818;6.972;2023-03-23T07:39:36;13.20;99.90
15636;DHT22;7917;50.818;6.972;2023-03-23T07:42:03;13.20;99.90
15636;DHT22;7917;50.818;6.972;2023-03-23T07:44:30;13.30;99.90
15636;DHT22;7917;50.818;6.972;2023-03-23T07:46:56;13.30;99.90
15636;DHT22;7917;50.818;6.972;2023-03-23T07:49:23;13.30;99.90
15636;DHT22;7917;50.818;6.972;2023-03-23T07:51:50;13.40;99.90
15636;DHT22;7917;50.818;6.972;2023-03-23T07:54:20;13.40;99.90
15636;DHT22;7917;50.818;6.972;2023-03-23T07:56:47;13.40;99.90
15636;DHT22;7917;50.818;6.972;2023-03-23T07:59:14;13.50;99.90
15636;DHT22;7917;50.818;6.972;2023-03-23T08:01:41;13.60;99.90
15636;DHT22;7917;50.818;6.972;2023-03-23T08:04:07;13.60;99.90
15636;DHT22;7917;50.818;6.972;2023-03-23T08:06:35;13.70;99.90
15636;DHT22;7917;50.818;6.972;2023-03-23T08:09:05;13.80;99.90
15636;DHT22;7917;50.818;6.972;2023-03-23T08:11:35;13.80;99.90
15636;DHT22;7917;50.818;6.972;2023-03-23T08:14:02;13.90;99.90
15636;DHT22;7917;50.818;6.972;2023-03-23T08:16:29;13.90;99.90
15636;DHT22;7917;50.818;6.972;2023-03-23T08:18:59;13.90;99.90
15636;DHT22;7917;50.818;6.972;2023-03-23T08:21:28;13.90;99.90
15636;DHT22;7917;50.818;6.972;2023-03-23T08:23:56;14.00;99.90
15636;DHT22;7917;50.818;6.972;2023-03-23T08:26:22;14.00;99.90
15636;DHT22;7917;50.818;6.972;2023-03-23T08:28:49;14.00;99.90
15636;DHT22;7917;50.818;6.972;2023-03-23T08:31:16;14.00;99.90
15636;DHT22;7917;50.818;6.972;2023-03-23T08:33:43;14.00;99.90
15636;DHT22;7917;50.818;6.972;2023-03-23T08:36:10;14.10;99.90
15636;DHT22;7917;50.818;6.972;2023-03-23T08:38:36;14.10;99.90
15636;DHT22;7917;50.818;6.972;2023-03-23T08:41:06;14.10;99.90
15636;DHT22;7917;50.818;6.972;2023-03-23T08:43:37;14.10;99.90
15636;DHT22;7917;50.818;6.972;2023-03-23T08:46:06;14.10;99.90
15636;DHT22;7917;50.818;6.972;2023-03-23T08:48:35;14.20;99.90
15636;DHT22;7917;50.818;6.972;2023-03-23T08:51:03;14.20;99.90
15636;DHT22;7917;50.818;6.972;2023-03-23T08:53:29;14.20;99.90
15636;DHT22;7917;50.818;6.972;2023-03-23T08:56:02;14.30;99.90
15636;DHT22;7917;50.818;6.972;2023-03-23T08:58:29;14.30;99.90
15636;DHT22;7917;50.818;6.972;2023-03-23T09:00:55;14.40;99.90
15636;DHT22;7917;50.818;6.972;2023-03-23T09:03:23;14.50;99.90
15636;DHT22;7917;50.818;6.972;2023-03-23T09:05:50;14.50;99.90
15636;DHT22;7917;50.818;6.972;2023-03-23T09:08:17;14.50;99.90
15636;DHT22;7917;50.818;6.972;2023-03-23T09:10:44;14.70;99.90
15636;DHT22;7917;50.818;6.972;2023-03-23T09:13:11;14.80;99.90
15636;DHT22;7917;50.818;6.972;2023-03-23T09:15:37;14.90;99.90
15636;DHT22;7917;50.818;6.972;2023-03-23T09:18:04;15.00;99.90
15636;DHT22;7917;50.818;6.972;2023-03-23T09:20:35;15.00;99.90
15636;DHT22;7917;50.818;6.972;2023-03-23T09:23:03;15.10;99.90
15636;DHT22;7917;50.818;6.972;2023-03-23T09:25:31;15.20;99.90
15636;DHT22;7917;50.818;6.972;2023-03-23T09:28:00;15.20;99.90
15636;DHT22;7917;50.818;6.972;2023-03-23T09:30:32;15.00;99.90
15636;DHT22;7917;50.818;6.972;2023-03-23T09:33:03;14.80;99.90
15636;DHT22;7917;50.818;6.972;2023-03-23T09:35:31;14.80;99.90
15636;DHT22;7917;50.818;6.972;2023-03-23T09:38:01;14.70;99.90
15636;DHT22;7917;50.818;6.972;2023-03-23T09:40:30;14.70;99.90
15636;DHT22;7917;50.818;6.972;2023-03-23T09:43:10;14.70;99.90
15636;DHT22;7917;50.818;6.972;2023-03-23T09:45:45;14.50;99.90
15636;DHT22;7917;50.818;6.972;2023-03-23T09:48:27;14.60;99.90
15636;DHT22;7917;50.818;6.972;2023-03-23T09:51:02;14.50;99.90
15636;DHT22;7917;50.818;6.972;2023-03-23T09:53:40;14.50;99.90
15636;DHT22;7917;50.818;6.972;2023-03-23T09:56:11;14.40;99.90
15636;DHT22;7917;50.818;6.972;2023-03-23T09:58:45;14.40;99.90
15636;DHT22;7917;50.818;6.972;2023-03-23T10:01:20;14.30;99.90
15636;DHT22;7917;50.818;6.972;2023-03-23T10:03:55;14.50;99.90
15636;DHT22;7917;50.818;6.972;2023-03-23T10:06:24;14.70;99.90
15636;DHT22;7917;50.818;6.972;2023-03-23T10:08:55;14.90;99.90
15636;DHT22;7917;50.818;6.972;2023-03-23T10:11:31;15.00;99.90
15636;DHT22;7917;50.818;6.972;2023-03-23T10:14:13;15.30;99.90
15636;DHT22;7917;50.818;6.972;2023-03-23T10:16:51;15.30;99.90
15636;DHT22;7917;50.818;6.972;2023-03-23T10:19:27;15.30;99.90
15636;DHT22;7917;50.818;6.972;2023-03-23T10:21:59;15.40;99.90
15636;DHT22;7917;50.818;6.972;2023-03-23T10:24:35;15.30;99.90
15636;DHT22;7917;50.818;6.972;2023-03-23T10:27:10;15.00;99.90
15636;DHT22;7917;50.818;6.972;2023-03-23T10:29:45;14.80;99.90
15636;DHT22;7917;50.818;6.972;2023-03-23T10:32:15;14.70;99.90
15636;DHT22;7917;50.818;6.972;2023-03-23T10:34:45;14.50;99.90
15636;DHT22;7917;50.818;6.972;2023-03-23T10:37:18;14.50;99.90
15636;DHT22;7917;50.818;6.972;2023-03-23T10:39:51;14.50;99.90
15636;DHT22;7917;50.818;6.972;2023-03-23T10:42:25;14.50;99.90
15636;DHT22;7917;50.818;6.972;2023-03-23T10:48:18;14.70;99.90
15636;DHT22;7917;50.818;6.972;2023-03-23T10:50:57;15.00;99.90
15636;DHT22;7917;50.818;6.972;2023-03-23T10:53:32;15.40;99.90
15636;DHT22;7917;50.818;6.972;2023-03-23T10:56:03;15.90;99.90
15636;DHT22;7917;50.818;6.972;2023-03-23T10:58:32;16.20;99.90
15636;DHT22;7917;50.818;6.972;2023-03-23T11:01:01;16.10;99.90
15636;DHT22;7917;50.818;6.972;2023-03-23T11:03:40;15.90;99.90
15636;DHT22;7917;50.818;6.972;2023-03-23T11:06:08;15.60;99.90
15636;DHT22;7917;50.818;6.972;2023-03-23T11:08:37;15.60;99.90
15636;DHT22;7917;50.818;6.972;2023-03-23T11:11:14;15.40;99.90
15636;DHT22;7917;50.818;6.972;2023-03-23T11:13:43;15.50;99.90
15636;DHT22;7917;50.818;6.972;2023-03-23T11:16:22;15.50;99.90
15636;DHT22;7917;50.818;6.972;2023-03-23T11:18:49;15.60;99.90
15636;DHT22;7917;50.818;6.972;2023-03-23T11:21:16;15.70;99.90
15636;DHT22;7917;50.818;6.972;2023-03-23T11:23:46;15.80;99.90
15636;DHT22;7917;50.818;6.972;2023-03-23T11:26:16;15.70;99.90
15636;DHT22;7917;50.818;6.972;2023-03-23T11:28:45;15.50;99.90
15636;DHT22;7917;50.818;6.972;2023-03-23T11:31:12;15.50;99.90
15636;DHT22;7917;50.818;6.972;2023-03-23T11:33:47;15.50;99.90
15636;DHT22;7917;50.818;6.972;2023-03-23T11:36:15;15.50;99.90
15636;DHT22;7917;50.818;6.972;2023-03-23T11:38:43;15.50;99.90
15636;DHT22;7917;50.818;6.972;2023-03-23T11:41:16;15.50;99.90
15636;DHT22;7917;50.818;6.972;2023-03-23T11:43:46;15.40;99.90
15636;DHT22;7917;50.818;6.972;2023-03-23T11:46:20;15.50;99.90
15636;DHT22;7917;50.818;6.972;2023-03-23T11:48:54;15.80;99.90
15636;DHT22;7917;50.818;6.972;2023-03-23T11:51:28;15.80;99.90
15636;DHT22;7917;50.818;6.972;2023-03-23T11:54:00;15.90;99.90
15636;DHT22;7917;50.818;6.972;2023-03-23T11:56:30;16.10;99.90
15636;DHT22;7917;50.818;6.972;2023-03-23T11:58:59;16.20;99.90
15636;DHT22;7917;50.818;6.972;2023-03-23T12:01:42;16.00;99.90
15636;DHT22;7917;50.818;6.972;2023-03-23T12:07:32;15.70;99.90
15636;DHT22;7917;50.818;6.972;2023-03-23T12:10:15;15.70;99.90
15636;DHT22;7917;50.818;6.972;2023-03-23T12:12:52;15.90;99.90
15636;DHT22;7917;50.818;6.972;2023-03-23T12:15:27;16.30;99.90
15636;DHT22;7917;50.818;6.972;2023-03-23T12:18:02;16.40;99.90
15636;DHT22;7917;50.818;6.972;2023-03-23T12:20:40;16.40;99.90
15636;DHT22;7917;50.818;6.972;2023-03-23T12:23:21;16.20;99.90
15636;DHT22;7917;50.818;6.972;2023-03-23T12:26:18;16.00;99.90
15636;DHT22;7917;50.818;6.972;2023-03-23T12:29:14;15.90;99.90
15636;DHT22;7917;50.818;6.972;2023-03-23T12:31:54;16.10;99.90
15636;DHT22;7917;50.818;6.972;2023-03-23T12:34:31;16.00;99.90
15636;DHT22;7917;50.818;6.972;2023-03-23T12:37:13;16.10;99.90
15636;DHT22;7917;50.818;6.972;2023-03-23T12:40:09;16.10;99.90
15636;DHT22;7917;50.818;6.972;2023-03-23T12:42:47;16.10;99.90
15636;DHT22;7917;50.818;6.972;2023-03-23T12:45:23;16.00;99.90
15636;DHT22;7917;50.818;6.972;2023-03-23T12:47:59;16.00;99.90
15636;DHT22;7917;50.818;6.972;2023-03-23T12:50:31;15.90;99.90
15636;DHT22;7917;50.818;6.972;2023-03-23T12:53:03;15.90;99.90
15636;DHT22;7917;50.818;6.972;2023-03-23T12:55:34;16.00;99.90
15636;DHT22;7917;50.818;6.972;2023-03-23T12:58:05;16.10;99.90
15636;DHT22;7917;50.818;6.972;2023-03-23T13:00:52;16.20;99.90
15636;DHT22;7917;50.818;6.972;2023-03-23T13:03:26;16.30;99.90
15636;DHT22;7917;50.818;6.972;2023-03-23T13:05:59;16.30;99.90
15636;DHT22;7917;50.818;6.972;2023-03-23T13:08:29;16.20;99.90
15636;DHT22;7917;50.818;6.972;2023-03-23T13:11:02;16.00;99.90
15636;DHT22;7917;50.818;6.972;2023-03-23T13:13:43;16.00;99.90
15636;DHT22;7917;50.818;6.972;2023-03-23T13:16:16;16.00;99.90
15636;DHT22;7917;50.818;6.972;2023-03-23T13:18:57;16.20;99.90
15636;DHT22;7917;50.818;6.972;2023-03-23T13:21:29;16.30;99.90
15636;DHT22;7917;50.818;6.972;2023-03-23T13:23:58;16.30;99.90
15636;DHT22;7917;50.818;6.972;2023-03-23T13:26:28;16.50;99.90
15636;DHT22;7917;50.818;6.972;2023-03-23T13:28:57;16.90;99.90
15636;DHT22;7917;50.818;6.972;2023-03-23T13:31:28;17.20;99.90
15636;DHT22;7917;50.818;6.972;2023-03-23T13:34:03;17.30;99.90
15636;DHT22;7917;50.818;6.972;2023-03-23T13:36:34;16.90;99.90
15636;DHT22;7917;50.818;6.972;2023-03-23T13:39:04;16.50;99.90
15636;DHT22;7917;50.818;6.972;2023-03-23T13:41:46;16.30;99.90
15636;DHT22;7917;50.818;6.972;2023-03-23T13:44:24;16.10;99.90
15636;DHT22;7917;50.818;6.972;2023-03-23T13:47:08;16.10;99.90
15636;DHT22;7917;50.818;6.972;2023-03-23T13:49:46;16.20;99.90
15636;DHT22;7917;50.818;6.972;2023-03-23T13:52:21;16.10;99.90
15636;DHT22;7917;50.818;6.972;2023-03-23T13:54:50;16.10;99.90
15636;DHT22;7917;50.818;6.972;2023-03-23T13:57:48;16.10;99.90
15636;DHT22;7917;50.818;6.972;2023-03-23T14:00:44;16.10;99.90
15636;DHT22;7917;50.818;6.972;2023-03-23T14:03:14;16.10;99.90
15636;DHT22;7917;50.818;6.972;2023-03-23T14:05:43;16.20;99.90
15636;DHT22;7917;50.818;6.972;2023-03-23T14:08:19;16.30;99.90
15636;DHT22;7917;50.818;6.972;2023-03-23T14:10:52;16.40;99.90
15636;DHT22;7917;50.818;6.972;2023-03-23T14:13:23;16.20;99.90
15636;DHT22;7917;50.818;6.972;2023-03-23T14:15:59;16.30;99.90
15636;DHT22;7917;50.818;6.972;2023-03-23T14:18:30;16.20;99.90
15636;DHT22;7917;50.818;6.972;2023-03-23T14:20:59;16.10;99.90
15636;DHT22;7917;50.818;6.972;2023-03-23T14:23:26;16.10;99.90
15636;DHT22;7917;50.818;6.972;2023-03-23T14:25:58;16.20;99.90
15636;DHT22;7917;50.818;6.972;2023-03-23T14:28:31;16.10;99.90
15636;DHT22;7917;50.818;6.972;2023-03-23T14:30:59;15.90;99.90
15636;DHT22;7917;50.818;6.972;2023-03-23T14:33:26;15.80;99.90
15636;DHT22;7917;50.818;6.972;2023-03-23T14:35:53;15.80;99.90
15636;DHT22;7917;50.818;6.972;2023-03-23T14:38:23;15.60;99.90
15636;DHT22;7917;50.818;6.972;2023-03-23T14:40:52;15.50;99.90
15636;DHT22;7917;50.818;6.972;2023-03-23T14:43:22;15.40;99.90
15636;DHT22;7917;50.818;6.972;2023-03-23T14:45:54;15.50;99.90
15636;DHT22;7917;50.818;6.972;2023-03-23T14:48:21;15.60;99.90
15636;DHT22;7917;50.818;6.972;2023-03-23T14:50:52;15.50;99.90
15636;DHT22;7917;50.818;6.972;2023-03-23T14:53:24;15.60;99.90
15636;DHT22;7917;50.818;6.972;2023-03-23T14:55:52;15.80;99.90
15636;DHT22;7917;50.818;6.972;2023-03-23T14:58:23;15.90;99.90
15636;DHT22;7917;50.818;6.972;2023-03-23T15:00:53;15.90;99.90
15636;DHT22;7917;50.818;6.972;2023-03-23T15:03:22;15.90;99.90
15636;DHT22;7917;50.818;6.972;2023-03-23T15:05:51;16.00;99.90
15636;DHT22;7917;50.818;6.972;2023-03-23T15:08:22;16.10;99.90
15636;DHT22;7917;50.818;6.972;2023-03-23T15:10:57;16.60;99.90
15636;DHT22;7917;50.818;6.972;2023-03-23T15:13:25;17.30;99.90
15636;DHT22;7917;50.818;6.972;2023-03-23T15:15:54;17.30;99.90
15636;DHT22;7917;50.818;6.972;2023-03-23T15:18:31;17.10;99.90
15636;DHT22;7917;50.818;6.972;2023-03-23T15:21:08;16.50;99.90
15636;DHT22;7917;50.818;6.972;2023-03-23T15:23:41;16.40;99.90
15636;DHT22;7917;50.818;6.972;2023-03-23T15:26:25;16.30;99.90
15636;DHT22;7917;50.818;6.972;2023-03-23T15:29:02;16.20;99.90
15636;DHT22;7917;50.818;6.972;2023-03-23T15:31:30;16.10;99.90
15636;DHT22;7917;50.818;6.972;2023-03-23T15:34:00;16.20;99.90
15636;DHT22;7917;50.818;6.972;2023-03-23T15:36:31;16.40;99.90
15636;DHT22;7917;50.818;6.972;2023-03-23T15:38:59;16.70;99.90
15636;DHT22;7917;50.818;6.972;2023-03-23T15:41:28;16.80;99.90
15636;DHT22;7917;50.818;6.972;2023-03-23T15:43:57;17.10;99.90
15636;DHT22;7917;50.818;6.972;2023-03-23T15:46:25;17.30;99.90
15636;DHT22;7917;50.818;6.972;2023-03-23T15:48:53;17.60;99.90
15636;DHT22;7917;50.818;6.972;2023-03-23T15:51:30;17.70;99.90
15636;DHT22;7917;50.818;6.972;2023-03-23T15:53:58;18.10;99.90
15636;DHT22;7917;50.818;6.972;2023-03-23T15:56:26;18.20;99.90
15636;DHT22;7917;50.818;6.972;2023-03-23T15:58:53;18.00;99.90
15636;DHT22;7917;50.818;6.972;2023-03-23T16:01:21;17.80;99.90
15636;DHT22;7917;50.818;6.972;2023-03-23T16:03:51;17.80;99.90
15636;DHT22;7917;50.818;6.972;2023-03-23T16:06:19;17.60;99.90
15636;DHT22;7917;50.818;6.972;2023-03-23T16:08:46;17.30;99.90
15636;DHT22;7917;50.818;6.972;2023-03-23T16:11:15;17.10;99.90
15636;DHT22;7917;50.818;6.972;2023-03-23T16:13:42;16.90;99.90
15636;DHT22;7917;50.818;6.972;2023-03-23T16:16:14;16.60;99.90
15636;DHT22;7917;50.818;6.972;2023-03-23T16:18:42;16.60;99.90
15636;DHT22;7917;50.818;6.972;2023-03-23T16:21:09;16.70;99.90
15636;DHT22;7917;50.818;6.972;2023-03-23T16:23:35;16.60;99.90
15636;DHT22;7917;50.818;6.972;2023-03-23T16:26:09;16.50;99.90
15636;DHT22;7917;50.818;6.972;2023-03-23T16:28:36;16.50;99.90
15636;DHT22;7917;50.818;6.972;2023-03-23T16:31:03;16.60;99.90
15636;DHT22;7917;50.818;6.972;2023-03-23T16:33:30;16.60;99.90
15636;DHT22;7917;50.818;6.972;2023-03-23T16:36:00;16.50;99.90